sensor_id;sensor_type;location;lat;lon;timestamp;temperature;humidity
16635;DHT22;8431;52.458;9.998;2023-01-23T00:02:20;1.50;99.90
16635;DHT22;8431;52.458;9.998;2023-01-23T00:04:47;1.60;99.90
16635;DHT22;8431;52.458;9.998;2023-01-23T00:07:14;1.60;99.90
16635;DHT22;8431;52.458;9.998;2023-01-23T00:09:41;1.60;99.90
16635;DHT22;8431;52.458;9.998;2023-01-23T00:12:09;1.60;99.90
16635;DHT22;8431;52.458;9.998;2023-01-23T00:14:36;1.60;99.90
16635;DHT22;8431;52.458;9.998;2023-01-23T00:17:04;1.60;99.90
16635;DHT22;8431;52.458;9.998;2023-01-23T00:19:31;1.50;99.90
16635;DHT22;8431;52.458;9.998;2023-01-23T00:21:59;1.60;99.90
16635;DHT22;8431;52.458;9.998;2023-01-23T00:24:26;1.60;99.90
16635;DHT22;8431;52.458;9.998;2023-01-23T00:26:54;1.60;99.90
16635;DHT22;8431;52.458;9.998;2023-01-23T00:29:21;1.60;99.90
16635;DHT22;8431;52.458;9.998;2023-01-23T00:31:49;1.70;99.90
16635;DHT22;8431;52.458;9.998;2023-01-23T00:34:17;1.60;99.90
16635;DHT22;8431;52.458;9.998;2023-01-23T00:36:44;1.60;99.90
16635;DHT22;8431;52.458;9.998;2023-01-23T00:39:17;1.60;99.90
16635;DHT22;8431;52.458;9.998;2023-01-23T00:41:45;1.60;99.90
16635;DHT22;8431;52.458;9.998;2023-01-23T00:44:13;1.60;99.90
16635;DHT22;8431;52.458;9.998;2023-01-23T00:46:40;1.60;99.90
16635;DHT22;8431;52.458;9.998;2023-01-23T00:49:07;1.60;99.90
16635;DHT22;8431;52.458;9.998;2023-01-23T00:51:36;1.60;99.90
16635;DHT22;8431;52.458;9.998;2023-01-23T00:54:03;1.60;99.90
16635;DHT22;8431;52.458;9.998;2023-01-23T00:56:30;1.70;99.90
16635;DHT22;8431;52.458;9.998;2023-01-23T00:58:57;1.70;99.90
16635;DHT22;8431;52.458;9.998;2023-01-23T01:01:24;1.70;99.90
16635;DHT22;8431;52.458;9.998;2023-01-23T01:03:53;1.80;99.90
16635;DHT22;8431;52.458;9.998;2023-01-23T01:06:20;1.70;99.90
16635;DHT22;8431;52.458;9.998;2023-01-23T01:08:49;1.60;99.90
16635;DHT22;8431;52.458;9.998;2023-01-23T01:11:16;1.60;99.90
16635;DHT22;8431;52.458;9.998;2023-01-23T01:13:43;1.60;99.90
16635;DHT22;8431;52.458;9.998;2023-01-23T01:16:11;1.70;99.90
16635;DHT22;8431;52.458;9.998;2023-01-23T01:18:38;1.70;99.90
16635;DHT22;8431;52.458;9.998;2023-01-23T01:21:18;1.70;99.90
16635;DHT22;8431;52.458;9.998;2023-01-23T01:23:57;1.70;99.90
16635;DHT22;8431;52.458;9.998;2023-01-23T01:26:27;1.70;99.90
16635;DHT22;8431;52.458;9.998;2023-01-23T01:28:54;1.70;99.90
16635;DHT22;8431;52.458;9.998;2023-01-23T01:31:21;1.70;99.90
16635;DHT22;8431;52.458;9.998;2023-01-23T01:33:48;1.70;99.90
16635;DHT22;8431;52.458;9.998;2023-01-23T01:36:18;1.70;99.90
16635;DHT22;8431;52.458;9.998;2023-01-23T01:38:46;1.70;99.90
16635;DHT22;8431;52.458;9.998;2023-01-23T01:41:14;1.70;99.90
16635;DHT22;8431;52.458;9.998;2023-01-23T01:43:42;1.70;99.90
16635;DHT22;8431;52.458;9.998;2023-01-23T01:46:17;1.70;99.90
16635;DHT22;8431;52.458;9.998;2023-01-23T01:48:49;1.70;99.90
16635;DHT22;8431;52.458;9.998;2023-01-23T01:51:20;1.70;99.90
16635;DHT22;8431;52.458;9.998;2023-01-23T01:53:51;1.70;99.90
16635;DHT22;8431;52.458;9.998;2023-01-23T01:56:22;1.70;99.90
16635;DHT22;8431;52.458;9.998;2023-01-23T01:58:50;1.70;99.90
16635;DHT22;8431;52.458;9.998;2023-01-23T02:01:18;1.70;99.90
16635;DHT22;8431;52.458;9.998;2023-01-23T02:03:46;1.80;99.90
16635;DHT22;8431;52.458;9.998;2023-01-23T02:06:14;1.70;99.90
16635;DHT22;8431;52.458;9.998;2023-01-23T02:08:46;1.70;99.90
16635;DHT22;8431;52.458;9.998;2023-01-23T02:11:14;1.70;99.90
16635;DHT22;8431;52.458;9.998;2023-01-23T02:13:44;1.70;99.90
16635;DHT22;8431;52.458;9.998;2023-01-23T02:16:13;1.70;99.90
16635;DHT22;8431;52.458;9.998;2023-01-23T02:18:42;1.70;99.90
16635;DHT22;8431;52.458;9.998;2023-01-23T02:21:13;1.60;99.90
16635;DHT22;8431;52.458;9.998;2023-01-23T02:23:53;1.60;99.90
16635;DHT22;8431;52.458;9.998;2023-01-23T02:26:27;1.60;99.90
16635;DHT22;8431;52.458;9.998;2023-01-23T02:28:54;1.60;99.90
16635;DHT22;8431;52.458;9.998;2023-01-23T02:31:22;1.60;99.90
16635;DHT22;8431;52.458;9.998;2023-01-23T02:33:51;1.60;99.90
16635;DHT22;8431;52.458;9.998;2023-01-23T02:36:20;1.60;99.90
16635;DHT22;8431;52.458;9.998;2023-01-23T02:39:01;1.60;99.90
16635;DHT22;8431;52.458;9.998;2023-01-23T02:41:32;1.60;99.90
16635;DHT22;8431;52.458;9.998;2023-01-23T02:44:03;1.70;99.90
16635;DHT22;8431;52.458;9.998;2023-01-23T02:46:30;1.70;99.90
16635;DHT22;8431;52.458;9.998;2023-01-23T02:48:57;1.70;99.90
16635;DHT22;8431;52.458;9.998;2023-01-23T02:51:24;1.60;99.90
16635;DHT22;8431;52.458;9.998;2023-01-23T02:53:51;1.60;99.90
16635;DHT22;8431;52.458;9.998;2023-01-23T02:56:18;1.60;99.90
16635;DHT22;8431;52.458;9.998;2023-01-23T02:58:47;1.70;99.90
16635;DHT22;8431;52.458;9.998;2023-01-23T03:01:31;1.70;99.90
16635;DHT22;8431;52.458;9.998;2023-01-23T03:04:01;1.70;99.90
16635;DHT22;8431;52.458;9.998;2023-01-23T03:06:30;1.70;99.90
16635;DHT22;8431;52.458;9.998;2023-01-23T03:09:02;1.70;99.90
16635;DHT22;8431;52.458;9.998;2023-01-23T03:11:30;1.70;99.90
16635;DHT22;8431;52.458;9.998;2023-01-23T03:13:59;1.80;99.90
16635;DHT22;8431;52.458;9.998;2023-01-23T03:16:27;1.70;99.90
16635;DHT22;8431;52.458;9.998;2023-01-23T03:18:54;1.70;99.90
16635;DHT22;8431;52.458;9.998;2023-01-23T03:21:29;1.70;99.90
16635;DHT22;8431;52.458;9.998;2023-01-23T03:23:59;1.60;99.90
16635;DHT22;8431;52.458;9.998;2023-01-23T03:26:26;1.60;99.90
16635;DHT22;8431;52.458;9.998;2023-01-23T03:28:54;1.60;99.90
16635;DHT22;8431;52.458;9.998;2023-01-23T03:31:40;1.60;99.90
16635;DHT22;8431;52.458;9.998;2023-01-23T03:34:07;1.70;99.90
16635;DHT22;8431;52.458;9.998;2023-01-23T03:36:37;1.70;99.90
16635;DHT22;8431;52.458;9.998;2023-01-23T03:39:06;1.70;99.90
16635;DHT22;8431;52.458;9.998;2023-01-23T03:41:51;1.80;99.90
16635;DHT22;8431;52.458;9.998;2023-01-23T03:44:18;1.80;99.90
16635;DHT22;8431;52.458;9.998;2023-01-23T03:46:48;1.80;99.90
16635;DHT22;8431;52.458;9.998;2023-01-23T03:49:16;1.90;99.90
16635;DHT22;8431;52.458;9.998;2023-01-23T03:51:43;1.90;99.90
16635;DHT22;8431;52.458;9.998;2023-01-23T03:54:10;1.80;99.90
16635;DHT22;8431;52.458;9.998;2023-01-23T03:56:39;1.80;99.90
16635;DHT22;8431;52.458;9.998;2023-01-23T03:59:06;1.80;99.90
16635;DHT22;8431;52.458;9.998;2023-01-23T04:01:38;1.80;99.90
16635;DHT22;8431;52.458;9.998;2023-01-23T04:04:06;1.80;99.90
16635;DHT22;8431;52.458;9.998;2023-01-23T04:06:33;1.80;99.90
16635;DHT22;8431;52.458;9.998;2023-01-23T04:09:01;1.70;99.90
16635;DHT22;8431;52.458;9.998;2023-01-23T04:11:28;1.80;99.90
16635;DHT22;8431;52.458;9.998;2023-01-23T04:13:55;1.80;99.90
16635;DHT22;8431;52.458;9.998;2023-01-23T04:16:25;1.70;99.90
16635;DHT22;8431;52.458;9.998;2023-01-23T04:18:53;1.70;99.90
16635;DHT22;8431;52.458;9.998;2023-01-23T04:21:22;1.70;99.90
16635;DHT22;8431;52.458;9.998;2023-01-23T04:23:49;1.60;99.90
16635;DHT22;8431;52.458;9.998;2023-01-23T04:26:16;1.60;99.90
16635;DHT22;8431;52.458;9.998;2023-01-23T04:28:43;1.70;99.90
16635;DHT22;8431;52.458;9.998;2023-01-23T04:31:10;1.60;99.90
16635;DHT22;8431;52.458;9.998;2023-01-23T04:33:38;1.60;99.90
16635;DHT22;8431;52.458;9.998;2023-01-23T04:36:06;1.60;99.90
16635;DHT22;8431;52.458;9.998;2023-01-23T04:38:34;1.60;99.90
16635;DHT22;8431;52.458;9.998;2023-01-23T04:41:01;1.60;99.90
16635;DHT22;8431;52.458;9.998;2023-01-23T04:43:29;1.70;99.90
16635;DHT22;8431;52.458;9.998;2023-01-23T04:45:57;1.70;99.90
16635;DHT22;8431;52.458;9.998;2023-01-23T04:48:24;1.70;99.90
16635;DHT22;8431;52.458;9.998;2023-01-23T04:50:52;1.80;99.90
16635;DHT22;8431;52.458;9.998;2023-01-23T04:53:19;1.80;99.90
16635;DHT22;8431;52.458;9.998;2023-01-23T04:55:47;1.80;99.90
16635;DHT22;8431;52.458;9.998;2023-01-23T04:58:16;1.80;99.90
16635;DHT22;8431;52.458;9.998;2023-01-23T05:00:43;1.80;99.90
16635;DHT22;8431;52.458;9.998;2023-01-23T05:03:11;1.80;99.90
16635;DHT22;8431;52.458;9.998;2023-01-23T05:05:38;1.80;99.90
16635;DHT22;8431;52.458;9.998;2023-01-23T05:08:05;1.80;99.90
16635;DHT22;8431;52.458;9.998;2023-01-23T05:10:32;1.80;99.90
16635;DHT22;8431;52.458;9.998;2023-01-23T05:13:00;1.80;99.90
16635;DHT22;8431;52.458;9.998;2023-01-23T05:15:28;1.80;99.90
16635;DHT22;8431;52.458;9.998;2023-01-23T05:17:55;1.80;99.90
16635;DHT22;8431;52.458;9.998;2023-01-23T05:20:22;1.80;99.90
16635;DHT22;8431;52.458;9.998;2023-01-23T05:22:49;1.80;99.90
16635;DHT22;8431;52.458;9.998;2023-01-23T05:25:20;1.80;99.90
16635;DHT22;8431;52.458;9.998;2023-01-23T05:27:47;1.80;99.90
16635;DHT22;8431;52.458;9.998;2023-01-23T05:30:17;1.70;99.90
16635;DHT22;8431;52.458;9.998;2023-01-23T05:32:45;1.70;99.90
16635;DHT22;8431;52.458;9.998;2023-01-23T05:35:13;1.70;99.90
16635;DHT22;8431;52.458;9.998;2023-01-23T05:37:40;1.70;99.90
16635;DHT22;8431;52.458;9.998;2023-01-23T05:40:09;1.70;99.90
16635;DHT22;8431;52.458;9.998;2023-01-23T05:42:36;1.70;99.90
16635;DHT22;8431;52.458;9.998;2023-01-23T05:45:04;1.70;99.90
16635;DHT22;8431;52.458;9.998;2023-01-23T05:47:33;1.70;99.90
16635;DHT22;8431;52.458;9.998;2023-01-23T05:50:00;1.70;99.90
16635;DHT22;8431;52.458;9.998;2023-01-23T05:52:27;1.70;99.90
16635;DHT22;8431;52.458;9.998;2023-01-23T05:54:54;1.80;99.90
16635;DHT22;8431;52.458;9.998;2023-01-23T05:57:21;1.70;99.90
16635;DHT22;8431;52.458;9.998;2023-01-23T05:59:51;1.70;99.90
16635;DHT22;8431;52.458;9.998;2023-01-23T06:02:21;1.70;99.90
16635;DHT22;8431;52.458;9.998;2023-01-23T06:04:49;1.70;99.90
16635;DHT22;8431;52.458;9.998;2023-01-23T06:07:17;1.70;99.90
16635;DHT22;8431;52.458;9.998;2023-01-23T06:09:45;1.60;99.90
16635;DHT22;8431;52.458;9.998;2023-01-23T06:12:12;1.60;99.90
16635;DHT22;8431;52.458;9.998;2023-01-23T06:14:40;1.70;99.90
16635;DHT22;8431;52.458;9.998;2023-01-23T06:17:07;1.70;99.90
16635;DHT22;8431;52.458;9.998;2023-01-23T06:19:34;1.70;99.90
16635;DHT22;8431;52.458;9.998;2023-01-23T06:22:02;1.70;99.90
16635;DHT22;8431;52.458;9.998;2023-01-23T06:24:30;1.70;99.90
16635;DHT22;8431;52.458;9.998;2023-01-23T06:26:57;1.70;99.90
16635;DHT22;8431;52.458;9.998;2023-01-23T06:29:24;1.70;99.90
16635;DHT22;8431;52.458;9.998;2023-01-23T06:31:51;1.70;99.90
16635;DHT22;8431;52.458;9.998;2023-01-23T06:34:18;1.80;99.90
16635;DHT22;8431;52.458;9.998;2023-01-23T06:36:45;1.80;99.90
16635;DHT22;8431;52.458;9.998;2023-01-23T06:39:14;1.90;99.90
16635;DHT22;8431;52.458;9.998;2023-01-23T06:41:41;1.80;99.90
16635;DHT22;8431;52.458;9.998;2023-01-23T06:44:08;1.90;99.90
16635;DHT22;8431;52.458;9.998;2023-01-23T06:46:35;1.80;99.90
16635;DHT22;8431;52.458;9.998;2023-01-23T06:49:03;1.80;99.90
16635;DHT22;8431;52.458;9.998;2023-01-23T06:51:31;1.80;99.90
16635;DHT22;8431;52.458;9.998;2023-01-23T06:53:58;1.80;99.90
16635;DHT22;8431;52.458;9.998;2023-01-23T06:56:26;1.80;99.90
16635;DHT22;8431;52.458;9.998;2023-01-23T06:58:53;1.80;99.90
16635;DHT22;8431;52.458;9.998;2023-01-23T07:01:20;1.80;99.90
16635;DHT22;8431;52.458;9.998;2023-01-23T07:03:48;1.70;99.90
16635;DHT22;8431;52.458;9.998;2023-01-23T07:06:15;1.70;99.90
16635;DHT22;8431;52.458;9.998;2023-01-23T07:08:43;1.70;99.90
16635;DHT22;8431;52.458;9.998;2023-01-23T07:11:10;1.70;99.90
16635;DHT22;8431;52.458;9.998;2023-01-23T07:13:41;1.70;99.90
16635;DHT22;8431;52.458;9.998;2023-01-23T07:16:08;1.70;99.90
16635;DHT22;8431;52.458;9.998;2023-01-23T07:18:35;1.60;99.90
16635;DHT22;8431;52.458;9.998;2023-01-23T07:21:04;1.50;99.90
16635;DHT22;8431;52.458;9.998;2023-01-23T07:23:32;1.40;99.90
16635;DHT22;8431;52.458;9.998;2023-01-23T07:25:59;1.40;99.90
16635;DHT22;8431;52.458;9.998;2023-01-23T07:28:28;1.40;99.90
16635;DHT22;8431;52.458;9.998;2023-01-23T07:30:57;1.40;99.90
16635;DHT22;8431;52.458;9.998;2023-01-23T07:33:25;1.40;99.90
16635;DHT22;8431;52.458;9.998;2023-01-23T07:35:52;1.40;99.90
16635;DHT22;8431;52.458;9.998;2023-01-23T07:38:20;1.40;99.90
16635;DHT22;8431;52.458;9.998;2023-01-23T07:40:49;1.40;99.90
16635;DHT22;8431;52.458;9.998;2023-01-23T07:43:16;1.40;99.90
16635;DHT22;8431;52.458;9.998;2023-01-23T07:45:43;1.40;99.90
16635;DHT22;8431;52.458;9.998;2023-01-23T07:48:11;1.40;99.90
16635;DHT22;8431;52.458;9.998;2023-01-23T07:50:38;1.50;99.90
16635;DHT22;8431;52.458;9.998;2023-01-23T07:53:06;1.60;99.90
16635;DHT22;8431;52.458;9.998;2023-01-23T07:55:33;1.60;99.90
16635;DHT22;8431;52.458;9.998;2023-01-23T07:58:00;1.70;99.90
16635;DHT22;8431;52.458;9.998;2023-01-23T08:00:27;1.60;99.90
16635;DHT22;8431;52.458;9.998;2023-01-23T08:02:55;1.60;99.90
16635;DHT22;8431;52.458;9.998;2023-01-23T08:05:31;1.60;99.90
16635;DHT22;8431;52.458;9.998;2023-01-23T08:07:58;1.60;99.90
16635;DHT22;8431;52.458;9.998;2023-01-23T08:10:25;1.60;99.90
16635;DHT22;8431;52.458;9.998;2023-01-23T08:12:53;1.60;99.90
16635;DHT22;8431;52.458;9.998;2023-01-23T08:15:20;1.60;99.90
16635;DHT22;8431;52.458;9.998;2023-01-23T08:17:48;1.70;99.90
16635;DHT22;8431;52.458;9.998;2023-01-23T08:20:15;1.70;99.90
16635;DHT22;8431;52.458;9.998;2023-01-23T08:22:44;1.80;99.90
16635;DHT22;8431;52.458;9.998;2023-01-23T08:25:15;1.80;99.90
16635;DHT22;8431;52.458;9.998;2023-01-23T08:27:42;1.80;99.90
16635;DHT22;8431;52.458;9.998;2023-01-23T08:30:10;1.80;99.90
16635;DHT22;8431;52.458;9.998;2023-01-23T08:32:37;1.90;99.90
16635;DHT22;8431;52.458;9.998;2023-01-23T08:35:05;1.90;99.90
16635;DHT22;8431;52.458;9.998;2023-01-23T08:37:32;1.90;99.90
16635;DHT22;8431;52.458;9.998;2023-01-23T08:40:00;1.90;99.90
16635;DHT22;8431;52.458;9.998;2023-01-23T08:42:27;2.00;99.90
16635;DHT22;8431;52.458;9.998;2023-01-23T08:44:56;1.90;99.90
16635;DHT22;8431;52.458;9.998;2023-01-23T08:47:23;1.90;99.90
16635;DHT22;8431;52.458;9.998;2023-01-23T08:49:50;2.00;99.90
16635;DHT22;8431;52.458;9.998;2023-01-23T08:52:17;2.00;99.90
16635;DHT22;8431;52.458;9.998;2023-01-23T08:54:44;2.00;99.90
16635;DHT22;8431;52.458;9.998;2023-01-23T08:57:12;2.00;99.90
16635;DHT22;8431;52.458;9.998;2023-01-23T08:59:39;2.10;99.90
16635;DHT22;8431;52.458;9.998;2023-01-23T09:02:10;2.00;99.90
16635;DHT22;8431;52.458;9.998;2023-01-23T09:04:37;2.10;99.90
16635;DHT22;8431;52.458;9.998;2023-01-23T09:07:04;2.10;99.90
16635;DHT22;8431;52.458;9.998;2023-01-23T09:09:31;2.00;99.90
16635;DHT22;8431;52.458;9.998;2023-01-23T09:11:58;1.90;99.90
16635;DHT22;8431;52.458;9.998;2023-01-23T09:14:26;2.00;99.90
16635;DHT22;8431;52.458;9.998;2023-01-23T09:16:53;1.90;99.90
16635;DHT22;8431;52.458;9.998;2023-01-23T09:19:20;1.70;99.90
16635;DHT22;8431;52.458;9.998;2023-01-23T09:21:47;1.60;99.90
16635;DHT22;8431;52.458;9.998;2023-01-23T09:24:15;1.50;99.90
16635;DHT22;8431;52.458;9.998;2023-01-23T09:26:42;1.50;99.90
16635;DHT22;8431;52.458;9.998;2023-01-23T09:29:09;1.60;99.90
16635;DHT22;8431;52.458;9.998;2023-01-23T09:31:38;1.70;99.90
16635;DHT22;8431;52.458;9.998;2023-01-23T09:34:05;1.70;99.90
16635;DHT22;8431;52.458;9.998;2023-01-23T09:36:32;1.60;99.90
16635;DHT22;8431;52.458;9.998;2023-01-23T09:38:59;1.60;99.90
16635;DHT22;8431;52.458;9.998;2023-01-23T09:41:28;1.60;99.90
16635;DHT22;8431;52.458;9.998;2023-01-23T09:43:58;1.60;99.90
16635;DHT22;8431;52.458;9.998;2023-01-23T09:46:28;1.70;99.90
16635;DHT22;8431;52.458;9.998;2023-01-23T09:49:02;1.70;99.90
16635;DHT22;8431;52.458;9.998;2023-01-23T09:51:43;1.70;99.90
16635;DHT22;8431;52.458;9.998;2023-01-23T09:54:18;1.80;99.90
16635;DHT22;8431;52.458;9.998;2023-01-23T09:56:51;1.90;99.90
16635;DHT22;8431;52.458;9.998;2023-01-23T09:59:28;1.90;99.90
16635;DHT22;8431;52.458;9.998;2023-01-23T10:01:59;1.90;99.90
16635;DHT22;8431;52.458;9.998;2023-01-23T10:04:28;2.00;99.90
16635;DHT22;8431;52.458;9.998;2023-01-23T10:07:06;1.90;99.90
16635;DHT22;8431;52.458;9.998;2023-01-23T10:09:43;1.80;99.90
16635;DHT22;8431;52.458;9.998;2023-01-23T10:12:30;1.80;99.90
16635;DHT22;8431;52.458;9.998;2023-01-23T10:15:18;1.80;99.90
16635;DHT22;8431;52.458;9.998;2023-01-23T10:17:51;1.90;99.90
16635;DHT22;8431;52.458;9.998;2023-01-23T10:20:32;1.90;99.90
16635;DHT22;8431;52.458;9.998;2023-01-23T10:23:09;1.80;99.90
16635;DHT22;8431;52.458;9.998;2023-01-23T10:25:39;1.70;99.90
16635;DHT22;8431;52.458;9.998;2023-01-23T10:28:28;1.80;99.90
16635;DHT22;8431;52.458;9.998;2023-01-23T10:31:00;1.90;99.90
16635;DHT22;8431;52.458;9.998;2023-01-23T10:33:35;2.00;99.90
16635;DHT22;8431;52.458;9.998;2023-01-23T10:36:34;2.00;99.90
16635;DHT22;8431;52.458;9.998;2023-01-23T10:39:04;2.00;99.90
16635;DHT22;8431;52.458;9.998;2023-01-23T10:41:36;2.00;99.90
16635;DHT22;8431;52.458;9.998;2023-01-23T10:44:11;2.10;99.90
16635;DHT22;8431;52.458;9.998;2023-01-23T10:46:44;2.20;99.90
16635;DHT22;8431;52.458;9.998;2023-01-23T10:49:27;2.20;99.90
16635;DHT22;8431;52.458;9.998;2023-01-23T10:51:56;2.10;99.90
16635;DHT22;8431;52.458;9.998;2023-01-23T10:54:24;2.10;99.90
16635;DHT22;8431;52.458;9.998;2023-01-23T10:56:54;2.10;99.90
16635;DHT22;8431;52.458;9.998;2023-01-23T10:59:34;2.10;99.90
16635;DHT22;8431;52.458;9.998;2023-01-23T11:02:20;2.10;99.90
16635;DHT22;8431;52.458;9.998;2023-01-23T11:04:49;2.20;99.90
16635;DHT22;8431;52.458;9.998;2023-01-23T11:07:19;2.20;99.90
16635;DHT22;8431;52.458;9.998;2023-01-23T11:09:50;2.30;99.90
16635;DHT22;8431;52.458;9.998;2023-01-23T11:12:19;2.30;99.90
16635;DHT22;8431;52.458;9.998;2023-01-23T11:14:47;2.40;99.90
16635;DHT22;8431;52.458;9.998;2023-01-23T11:17:18;2.30;99.90
16635;DHT22;8431;52.458;9.998;2023-01-23T11:19:46;2.20;99.90
16635;DHT22;8431;52.458;9.998;2023-01-23T11:22:28;2.20;99.90
16635;DHT22;8431;52.458;9.998;2023-01-23T11:24:57;2.10;99.90
16635;DHT22;8431;52.458;9.998;2023-01-23T11:27:25;2.20;99.90
16635;DHT22;8431;52.458;9.998;2023-01-23T11:30:26;2.20;99.90
16635;DHT22;8431;52.458;9.998;2023-01-23T11:32:58;2.20;99.90
16635;DHT22;8431;52.458;9.998;2023-01-23T11:35:35;2.20;99.90
16635;DHT22;8431;52.458;9.998;2023-01-23T11:38:12;2.00;99.90
16635;DHT22;8431;52.458;9.998;2023-01-23T11:40:43;2.00;99.90
16635;DHT22;8431;52.458;9.998;2023-01-23T11:43:13;2.10;99.90
16635;DHT22;8431;52.458;9.998;2023-01-23T11:45:53;2.10;99.90
16635;DHT22;8431;52.458;9.998;2023-01-23T11:48:33;2.00;99.90
16635;DHT22;8431;52.458;9.998;2023-01-23T11:51:06;1.90;99.90
16635;DHT22;8431;52.458;9.998;2023-01-23T11:53:43;2.00;99.90
16635;DHT22;8431;52.458;9.998;2023-01-23T11:56:30;2.10;99.90
16635;DHT22;8431;52.458;9.998;2023-01-23T12:02:56;1.90;99.90
16635;DHT22;8431;52.458;9.998;2023-01-23T12:06:02;1.90;99.90
16635;DHT22;8431;52.458;9.998;2023-01-23T12:08:44;1.80;99.90
16635;DHT22;8431;52.458;9.998;2023-01-23T12:11:16;1.80;99.90
16635;DHT22;8431;52.458;9.998;2023-01-23T12:14:11;1.80;99.90
16635;DHT22;8431;52.458;9.998;2023-01-23T12:16:54;1.80;99.90
16635;DHT22;8431;52.458;9.998;2023-01-23T12:19:33;2.00;99.90
16635;DHT22;8431;52.458;9.998;2023-01-23T12:22:10;2.00;99.90
16635;DHT22;8431;52.458;9.998;2023-01-23T12:24:52;2.00;99.90
16635;DHT22;8431;52.458;9.998;2023-01-23T12:27:28;2.10;99.90
16635;DHT22;8431;52.458;9.998;2023-01-23T12:30:18;2.20;99.90
16635;DHT22;8431;52.458;9.998;2023-01-23T12:33:22;2.00;99.90
16635;DHT22;8431;52.458;9.998;2023-01-23T12:36:04;2.10;99.90
16635;DHT22;8431;52.458;9.998;2023-01-23T12:38:42;2.20;99.90
16635;DHT22;8431;52.458;9.998;2023-01-23T12:41:24;2.20;99.90
16635;DHT22;8431;52.458;9.998;2023-01-23T12:43:58;2.20;99.90
16635;DHT22;8431;52.458;9.998;2023-01-23T12:46:35;2.20;99.90
16635;DHT22;8431;52.458;9.998;2023-01-23T12:49:12;2.10;99.90
16635;DHT22;8431;52.458;9.998;2023-01-23T12:51:48;2.00;99.90
16635;DHT22;8431;52.458;9.998;2023-01-23T12:54:23;2.10;99.90
16635;DHT22;8431;52.458;9.998;2023-01-23T12:56:55;2.10;99.90
16635;DHT22;8431;52.458;9.998;2023-01-23T12:59:25;2.10;99.90
16635;DHT22;8431;52.458;9.998;2023-01-23T13:01:59;2.10;99.90
16635;DHT22;8431;52.458;9.998;2023-01-23T13:04:40;2.10;99.90
16635;DHT22;8431;52.458;9.998;2023-01-23T13:07:22;2.10;99.90
16635;DHT22;8431;52.458;9.998;2023-01-23T13:10:19;2.10;99.90
16635;DHT22;8431;52.458;9.998;2023-01-23T13:12:53;2.10;99.90
16635;DHT22;8431;52.458;9.998;2023-01-23T13:15:31;2.10;99.90
16635;DHT22;8431;52.458;9.998;2023-01-23T13:17:59;2.10;99.90
16635;DHT22;8431;52.458;9.998;2023-01-23T13:20:28;2.30;99.90
16635;DHT22;8431;52.458;9.998;2023-01-23T13:23:27;2.50;99.90
16635;DHT22;8431;52.458;9.998;2023-01-23T13:26:24;2.40;99.90
16635;DHT22;8431;52.458;9.998;2023-01-23T13:28:59;2.30;99.90
16635;DHT22;8431;52.458;9.998;2023-01-23T13:31:38;2.50;99.90
16635;DHT22;8431;52.458;9.998;2023-01-23T13:34:34;2.50;99.90
16635;DHT22;8431;52.458;9.998;2023-01-23T13:37:46;2.40;99.90
16635;DHT22;8431;52.458;9.998;2023-01-23T13:40:19;2.30;99.90
16635;DHT22;8431;52.458;9.998;2023-01-23T13:42:46;2.20;99.90
16635;DHT22;8431;52.458;9.998;2023-01-23T13:45:28;2.30;99.90
16635;DHT22;8431;52.458;9.998;2023-01-23T13:51:28;2.30;99.90
16635;DHT22;8431;52.458;9.998;2023-01-23T13:53:55;2.30;99.90
16635;DHT22;8431;52.458;9.998;2023-01-23T13:56:40;2.30;99.90
16635;DHT22;8431;52.458;9.998;2023-01-23T14:02:27;2.20;99.90
16635;DHT22;8431;52.458;9.998;2023-01-23T14:05:16;2.20;99.90
16635;DHT22;8431;52.458;9.998;2023-01-23T14:07:48;2.20;99.90
16635;DHT22;8431;52.458;9.998;2023-01-23T14:13:02;2.10;99.90
16635;DHT22;8431;52.458;9.998;2023-01-23T14:15:46;2.10;99.90
16635;DHT22;8431;52.458;9.998;2023-01-23T14:18:35;2.10;99.90
16635;DHT22;8431;52.458;9.998;2023-01-23T14:21:05;2.10;99.90
16635;DHT22;8431;52.458;9.998;2023-01-23T14:23:35;2.10;99.90
16635;DHT22;8431;52.458;9.998;2023-01-23T14:26:04;2.10;99.90
16635;DHT22;8431;52.458;9.998;2023-01-23T14:28:33;2.00;99.90
16635;DHT22;8431;52.458;9.998;2023-01-23T14:31:02;2.10;99.90
16635;DHT22;8431;52.458;9.998;2023-01-23T14:33:40;2.00;99.90
16635;DHT22;8431;52.458;9.998;2023-01-23T14:36:14;2.00;99.90
16635;DHT22;8431;52.458;9.998;2023-01-23T14:38:44;2.00;99.90
16635;DHT22;8431;52.458;9.998;2023-01-23T14:41:11;2.00;99.90
16635;DHT22;8431;52.458;9.998;2023-01-23T14:43:40;2.00;99.90
16635;DHT22;8431;52.458;9.998;2023-01-23T14:46:14;2.00;99.90
16635;DHT22;8431;52.458;9.998;2023-01-23T14:48:44;2.00;99.90
16635;DHT22;8431;52.458;9.998;2023-01-23T14:51:18;2.00;99.90
16635;DHT22;8431;52.458;9.998;2023-01-23T14:53:54;2.00;99.90
16635;DHT22;8431;52.458;9.998;2023-01-23T14:56:26;2.00;99.90
16635;DHT22;8431;52.458;9.998;2023-01-23T14:58:56;2.00;99.90
16635;DHT22;8431;52.458;9.998;2023-01-23T15:01:24;2.00;99.90
16635;DHT22;8431;52.458;9.998;2023-01-23T15:03:57;2.00;99.90
16635;DHT22;8431;52.458;9.998;2023-01-23T15:06:26;2.00;99.90
16635;DHT22;8431;52.458;9.998;2023-01-23T15:08:54;2.00;99.90
16635;DHT22;8431;52.458;9.998;2023-01-23T15:11:29;1.90;99.90
16635;DHT22;8431;52.458;9.998;2023-01-23T15:13:58;2.00;99.90
16635;DHT22;8431;52.458;9.998;2023-01-23T15:16:32;2.00;99.90
16635;DHT22;8431;52.458;9.998;2023-01-23T15:19:04;2.00;99.90
16635;DHT22;8431;52.458;9.998;2023-01-23T15:21:35;1.90;99.90
16635;DHT22;8431;52.458;9.998;2023-01-23T15:24:17;2.00;99.90
16635;DHT22;8431;52.458;9.998;2023-01-23T15:26:56;2.00;99.90
16635;DHT22;8431;52.458;9.998;2023-01-23T15:29:24;2.00;99.90
16635;DHT22;8431;52.458;9.998;2023-01-23T15:31:52;1.90;99.90
16635;DHT22;8431;52.458;9.998;2023-01-23T15:34:27;1.90;99.90
16635;DHT22;8431;52.458;9.998;2023-01-23T15:36:56;2.00;99.90
16635;DHT22;8431;52.458;9.998;2023-01-23T15:39:27;2.10;99.90
16635;DHT22;8431;52.458;9.998;2023-01-23T15:41:57;2.00;99.90
16635;DHT22;8431;52.458;9.998;2023-01-23T15:44:26;2.10;99.90
16635;DHT22;8431;52.458;9.998;2023-01-23T15:46:53;2.10;99.90
16635;DHT22;8431;52.458;9.998;2023-01-23T15:49:20;2.00;99.90
16635;DHT22;8431;52.458;9.998;2023-01-23T15:51:49;1.90;99.90
16635;DHT22;8431;52.458;9.998;2023-01-23T15:54:22;1.90;99.90
16635;DHT22;8431;52.458;9.998;2023-01-23T15:57:02;1.90;99.90
16635;DHT22;8431;52.458;9.998;2023-01-23T15:59:36;1.90;99.90
16635;DHT22;8431;52.458;9.998;2023-01-23T16:02:03;1.90;99.90
16635;DHT22;8431;52.458;9.998;2023-01-23T16:04:30;1.90;99.90
16635;DHT22;8431;52.458;9.998;2023-01-23T16:07:02;1.90;99.90
16635;DHT22;8431;52.458;9.998;2023-01-23T16:09:34;2.00;99.90
16635;DHT22;8431;52.458;9.998;2023-01-23T16:12:13;2.10;99.90
16635;DHT22;8431;52.458;9.998;2023-01-23T16:14:42;2.00;99.90
16635;DHT22;8431;52.458;9.998;2023-01-23T16:17:08;2.00;99.90
16635;DHT22;8431;52.458;9.998;2023-01-23T16:19:36;2.00;99.90
16635;DHT22;8431;52.458;9.998;2023-01-23T16:22:04;2.10;99.90
16635;DHT22;8431;52.458;9.998;2023-01-23T16:24:35;2.10;99.90
16635;DHT22;8431;52.458;9.998;2023-01-23T16:27:03;2.10;99.90
16635;DHT22;8431;52.458;9.998;2023-01-23T16:29:32;2.10;99.90
16635;DHT22;8431;52.458;9.998;2023-01-23T16:32:20;2.20;99.90
16635;DHT22;8431;52.458;9.998;2023-01-23T16:34:50;2.20;99.90
16635;DHT22;8431;52.458;9.998;2023-01-23T16:37:19;2.10;99.90
16635;DHT22;8431;52.458;9.998;2023-01-23T16:39:46;2.10;99.90
16635;DHT22;8431;52.458;9.998;2023-01-23T16:45:22;2.10;99.90